Time;durP1;ratioP1;P1;durP2;ratioP2;P2;SDS_P1;SDS_P2;PMS_P1;PMS_P2;Temp;Humidity;BMP_temperature;BMP_pressure;BME280_temperature;BME280_humidity;BME280_pressure;Samples;Min_cycle;Max_cycle;Signal;HPM_P1;HPM_P2
2021/03/11 00:01:28;;;;;;;33.07;18.20;;;;;;;;;;5075268;28;20033;-81
2021/03/11 00:03:53;;;;;;;29.33;17.87;;;;;;;;;;5074200;28;20470;-81
2021/03/11 00:06:18;;;;;;;29.73;16.50;;;;;;;;;;5074133;28;20033;-81
2021/03/11 00:08:43;;;;;;;28.23;15.33;;;;;;;;;;5073977;28;20032;-81
2021/03/11 00:11:09;;;;;;;29.73;17.03;;;;;;;;;;5075918;28;20108;-81
2021/03/11 00:13:34;;;;;;;26.83;15.40;;;;;;;;;;5073819;28;20115;-81
2021/03/11 00:15:59;;;;;;;26.43;17.50;;;;;;;;;;5075534;28;20464;-81
2021/03/11 00:18:25;;;;;;;25.67;14.60;;;;;;;;;;5073782;28;20021;-81
2021/03/11 00:20:50;;;;;;;25.87;15.13;;;;;;;;;;5073916;28;20017;-81
2021/03/11 00:23:15;;;;;;;29.17;17.17;;;;;;;;;;5073622;28;20472;-81
2021/03/11 00:25:40;;;;;;;24.07;12.10;;;;;;;;;;5073916;28;20028;-81
2021/03/11 00:28:05;;;;;;;27.27;14.40;;;;;;;;;;5071175;28;20071;-81
2021/03/11 00:30:31;;;;;;;26.90;14.63;;;;;;;;;;5074100;28;20065;-81
2021/03/11 00:32:56;;;;;;;23.37;9.30;;;;;;;;;;5073688;28;20020;-81
2021/03/11 00:35:21;;;;;;;22.73;13.30;;;;;;;;;;5073617;28;20472;-82
2021/03/11 00:37:47;;;;;;;21.93;13.80;;;;;;;;;;5073543;28;20024;-81
2021/03/11 00:40:13;;;;;;;20.90;13.00;;;;;;;;;;5073502;28;20035;-81
2021/03/11 00:42:39;;;;;;;21.50;11.83;;;;;;;;;;5073421;28;20021;-81
2021/03/11 00:45:05;;;;;;;19.50;12.13;;;;;;;;;;5073447;28;20411;-81
2021/03/11 00:47:30;;;;;;;16.57;9.13;;;;;;;;;;5073334;28;20012;-81
2021/03/11 00:49:55;;;;;;;17.70;10.10;;;;;;;;;;5073240;28;20024;-81
2021/03/11 00:52:20;;;;;;;17.10;11.10;;;;;;;;;;5073462;28;20426;-81
2021/03/11 00:54:46;;;;;;;20.60;11.53;;;;;;;;;;5072927;28;20058;-81
2021/03/11 00:57:11;;;;;;;17.47;9.70;;;;;;;;;;5072576;28;20115;-81
2021/03/11 00:59:36;;;;;;;16.90;11.07;;;;;;;;;;5074689;28;20412;-81
2021/03/11 01:02:02;;;;;;;18.90;11.00;;;;;;;;;;5074299;28;20028;-81
2021/03/11 01:04:27;;;;;;;19.10;12.27;;;;;;;;;;5074392;28;20059;-81
2021/03/11 01:06:52;;;;;;;14.00;7.37;;;;;;;;;;5073034;28;20034;-81
2021/03/11 01:09:17;;;;;;;14.77;9.97;;;;;;;;;;5073242;28;20537;-82
2021/03/11 01:11:42;;;;;;;17.03;10.27;;;;;;;;;;5072623;28;20443;-81
2021/03/11 01:14:08;;;;;;;15.77;9.40;;;;;;;;;;5073058;28;20435;-82
2021/03/11 01:16:33;;;;;;;17.97;10.73;;;;;;;;;;5072866;28;20012;-81
2021/03/11 01:18:58;;;;;;;15.37;9.10;;;;;;;;;;5073881;28;20111;-81
2021/03/11 01:21:23;;;;;;;17.57;8.43;;;;;;;;;;5072782;28;20016;-81
2021/03/11 01:23:48;;;;;;;14.27;9.27;;;;;;;;;;5074128;28;20408;-81
2021/03/11 01:26:14;;;;;;;16.07;10.73;;;;;;;;;;5072464;28;20024;-81
2021/03/11 01:28:39;;;;;;;18.70;11.10;;;;;;;;;;5073942;28;20020;-82
2021/03/11 01:31:04;;;;;;;17.50;11.27;;;;;;;;;;5073978;28;20119;-81
2021/03/11 01:33:29;;;;;;;16.17;10.07;;;;;;;;;;5071622;28;20086;-81
2021/03/11 01:35:54;;;;;;;14.90;9.90;;;;;;;;;;5071958;28;20096;-81
2021/03/11 01:38:20;;;;;;;19.03;11.10;;;;;;;;;;5072417;28;20368;-82
2021/03/11 01:40:45;;;;;;;16.73;10.33;;;;;;;;;;5072613;28;20551;-81
2021/03/11 01:43:10;;;;;;;16.70;8.47;;;;;;;;;;5072283;28;20028;-81
2021/03/11 01:45:36;;;;;;;18.70;12.00;;;;;;;;;;5072307;28;20055;-81
2021/03/11 01:48:01;;;;;;;16.07;10.13;;;;;;;;;;5073423;28;20107;-81
2021/03/11 01:50:26;;;;;;;15.33;10.23;;;;;;;;;;5072376;28;20104;-81
2021/03/11 01:52:51;;;;;;;17.40;11.37;;;;;;;;;;5071778;28;20119;-81
2021/03/11 01:55:17;;;;;;;20.43;11.37;;;;;;;;;;5072457;28;20020;-82
2021/03/11 01:57:43;;;;;;;20.27;12.17;;;;;;;;;;5073385;28;20021;-82
2021/03/11 02:00:09;;;;;;;21.27;13.23;;;;;;;;;;5073248;28;20028;-81
2021/03/11 02:02:35;;;;;;;17.83;11.90;;;;;;;;;;5073247;28;20099;-81
2021/03/11 02:05:03;;;;;;;19.70;13.27;;;;;;;;;;5073140;28;20021;-81
2021/03/11 02:07:28;;;;;;;18.93;11.53;;;;;;;;;;5073317;28;20124;-81
2021/03/11 02:09:53;;;;;;;18.13;11.20;;;;;;;;;;5071675;28;20044;-81
2021/03/11 02:12:34;;;;;;;21.50;11.93;;;;;;;;;;5071687;28;20039;-81
2021/03/11 02:15:14;;;;;;;19.93;13.33;;;;;;;;;;5071531;28;20027;-81
2021/03/11 02:17:42;;;;;;;20.53;13.63;;;;;;;;;;5065810;28;20017;-82
2021/03/11 02:20:11;;;;;;;21.50;14.10;;;;;;;;;;5071314;28;20047;-81
2021/03/11 02:22:55;;;;;;;23.23;14.73;;;;;;;;;;5071725;28;20023;-82
2021/03/11 02:25:39;;;;;;;23.43;15.70;;;;;;;;;;5095760;28;20017;-81
2021/03/11 02:28:11;;;;;;;24.77;16.00;;;;;;;;;;5070782;28;20032;-82
2021/03/11 02:30:37;;;;;;;26.15;16.00;;;;;;;;;;5071599;28;20042;-81
2021/03/11 02:33:03;;;;;;;23.73;15.90;;;;;;;;;;5072755;28;20074;-82
2021/03/11 02:35:29;;;;;;;22.57;14.93;;;;;;;;;;5070896;28;20016;-82
2021/03/11 02:37:55;;;;;;;24.33;15.07;;;;;;;;;;5071161;28;20035;-82
2021/03/11 02:40:25;;;;;;;22.33;13.60;;;;;;;;;;5071070;28;20020;-82
2021/03/11 02:42:52;;;;;;;23.37;14.40;;;;;;;;;;5070913;28;20028;-81
2021/03/11 02:45:19;;;;;;;27.77;14.73;;;;;;;;;;5070780;28;20025;-81
2021/03/11 02:47:44;;;;;;;25.00;15.80;;;;;;;;;;5071082;28;20016;-82
2021/03/11 02:50:11;;;;;;;27.83;14.87;;;;;;;;;;5072112;28;20353;-82
2021/03/11 02:52:36;;;;;;;29.03;16.50;;;;;;;;;;5070787;28;20028;-82
2021/03/11 02:55:03;;;;;;;23.07;14.87;;;;;;;;;;5072353;28;20031;-82
2021/03/11 02:57:29;;;;;;;30.33;15.83;;;;;;;;;;5071856;28;20016;-82
2021/03/11 02:59:55;;;;;;;30.27;16.73;;;;;;;;;;5070810;28;20479;-82
2021/03/11 03:02:20;;;;;;;28.47;19.73;;;;;;;;;;5070540;28;20024;-82
2021/03/11 03:04:51;;;;;;;26.33;16.80;;;;;;;;;;5072218;28;20472;-82
2021/03/11 03:07:17;;;;;;;30.63;16.97;;;;;;;;;;5071607;28;20024;-82
2021/03/11 03:09:49;;;;;;;27.53;18.00;;;;;;;;;;5072111;28;20373;-82
2021/03/11 03:12:15;;;;;;;28.98;17.02;;;;;;;;;;5070698;28;20506;-81
2021/03/11 03:14:42;;;;;;;31.33;18.67;;;;;;;;;;5071666;28;20016;-82
2021/03/11 03:17:07;;;;;;;27.93;17.07;;;;;;;;;;5070772;28;20115;-82
2021/03/11 03:19:33;;;;;;;30.53;17.83;;;;;;;;;;5071704;28;20456;-82
2021/03/11 03:21:58;;;;;;;26.00;15.93;;;;;;;;;;5071461;28;20025;-82
2021/03/11 03:24:24;;;;;;;27.47;16.73;;;;;;;;;;5070165;28;20043;-81
2021/03/11 03:26:49;;;;;;;28.93;16.37;;;;;;;;;;5070381;28;20028;-82
2021/03/11 03:29:14;;;;;;;23.93;14.53;;;;;;;;;;5070668;28;20024;-82
2021/03/11 03:31:40;;;;;;;26.60;15.20;;;;;;;;;;5071503;28;20032;-82
2021/03/11 03:34:05;;;;;;;24.60;16.20;;;;;;;;;;5071693;28;20606;-82
2021/03/11 03:36:30;;;;;;;25.63;15.53;;;;;;;;;;5070148;28;20122;-81
2021/03/11 03:38:55;;;;;;;25.47;15.20;;;;;;;;;;5071504;28;20021;-82
2021/03/11 03:41:26;;;;;;;26.13;16.30;;;;;;;;;;5070392;28;20494;-81
2021/03/11 03:43:51;;;;;;;27.33;15.23;;;;;;;;;;5070123;28;20353;-81
2021/03/11 03:46:18;;;;;;;27.30;16.93;;;;;;;;;;5070531;28;20032;-81
2021/03/11 03:48:52;;;;;;;25.47;15.27;;;;;;;;;;5071400;28;20094;-82
2021/03/11 03:51:20;;;;;;;21.63;13.77;;;;;;;;;;5070338;28;20047;-82
2021/03/11 03:53:48;;;;;;;22.20;14.37;;;;;;;;;;5069981;28;20454;-81
2021/03/11 03:56:18;;;;;;;22.47;15.00;;;;;;;;;;5070384;28;20028;-82
2021/03/11 03:58:44;;;;;;;22.10;13.40;;;;;;;;;;5069909;28;20017;-82
2021/03/11 04:01:10;;;;;;;23.83;13.80;;;;;;;;;;5070369;28;20024;-81
2021/03/11 04:03:36;;;;;;;21.40;13.10;;;;;;;;;;5069716;28;20189;-82
2021/03/11 04:06:02;;;;;;;21.80;12.63;;;;;;;;;;5070020;28;20050;-81
2021/03/11 04:08:28;;;;;;;20.53;11.43;;;;;;;;;;5070209;28;20074;-82
2021/03/11 04:10:54;;;;;;;20.00;13.83;;;;;;;;;;5069849;28;20029;-81
2021/03/11 04:13:20;;;;;;;19.20;11.33;;;;;;;;;;5071222;28;20480;-82
2021/03/11 04:15:45;;;;;;;18.23;10.93;;;;;;;;;;5069764;28;20074;-82
2021/03/11 04:18:11;;;;;;;18.83;13.77;;;;;;;;;;5071335;28;20024;-82
2021/03/11 04:20:37;;;;;;;21.60;11.77;;;;;;;;;;5070093;28;20024;-81
2021/03/11 04:23:02;;;;;;;20.73;13.03;;;;;;;;;;5069640;28;20021;-82
2021/03/11 04:25:27;;;;;;;17.43;11.27;;;;;;;;;;5071380;28;20028;-82
2021/03/11 04:27:53;;;;;;;20.80;13.50;;;;;;;;;;5069490;28;20025;-82
2021/03/11 04:30:18;;;;;;;27.67;12.40;;;;;;;;;;5071282;28;20435;-82
2021/03/11 04:32:44;;;;;;;20.27;11.03;;;;;;;;;;5071934;28;20103;-82
2021/03/11 04:35:10;;;;;;;20.73;13.60;;;;;;;;;;5074784;28;20024;-82
2021/03/11 04:37:38;;;;;;;20.83;12.53;;;;;;;;;;5073307;28;20035;-82
2021/03/11 04:40:04;;;;;;;18.37;12.57;;;;;;;;;;5073045;28;20460;-82
2021/03/11 04:42:29;;;;;;;19.87;13.53;;;;;;;;;;5073087;28;20028;-82
2021/03/11 04:44:55;;;;;;;18.30;11.60;;;;;;;;;;5073049;28;20024;-82
2021/03/11 04:47:20;;;;;;;20.40;10.33;;;;;;;;;;5073025;28;20051;-82
2021/03/11 04:49:46;;;;;;;19.10;12.17;;;;;;;;;;5073136;28;20029;-82
2021/03/11 04:52:13;;;;;;;16.50;11.57;;;;;;;;;;5072975;28;20031;-82
2021/03/11 04:54:38;;;;;;;18.63;11.73;;;;;;;;;;5074268;28;20026;-82
2021/03/11 04:57:05;;;;;;;14.03;9.00;;;;;;;;;;5072656;28;20027;-82
2021/03/11 04:59:30;;;;;;;18.00;10.70;;;;;;;;;;5073016;28;20013;-82
2021/03/11 05:01:57;;;;;;;18.23;11.47;;;;;;;;;;5072684;28;20112;-82
2021/03/11 05:04:23;;;;;;;17.60;11.53;;;;;;;;;;5072955;28;20411;-82
2021/03/11 05:06:48;;;;;;;17.47;11.83;;;;;;;;;;5074117;28;20036;-82
2021/03/11 05:09:13;;;;;;;16.43;11.23;;;;;;;;;;5072678;28;20035;-82
2021/03/11 05:11:38;;;;;;;21.87;13.40;;;;;;;;;;5074077;28;20020;-82
2021/03/11 05:14:04;;;;;;;18.93;12.83;;;;;;;;;;5073710;28;20056;-82
2021/03/11 05:16:29;;;;;;;18.87;11.77;;;;;;;;;;5072613;28;20439;-82
2021/03/11 05:18:54;;;;;;;19.77;11.87;;;;;;;;;;5073605;28;20074;-82
2021/03/11 05:21:19;;;;;;;18.90;12.90;;;;;;;;;;5073700;28;20100;-82
2021/03/11 05:23:44;;;;;;;18.90;10.80;;;;;;;;;;5074022;28;20055;-82
2021/03/11 05:26:10;;;;;;;19.47;12.57;;;;;;;;;;5072433;28;20035;-82
2021/03/11 05:28:35;;;;;;;19.67;12.03;;;;;;;;;;5072427;28;20031;-82
2021/03/11 05:31:00;;;;;;;21.43;11.23;;;;;;;;;;5072198;28;20086;-82
2021/03/11 05:33:25;;;;;;;20.80;11.00;;;;;;;;;;5064701;28;20035;-82
2021/03/11 05:35:50;;;;;;;19.60;11.90;;;;;;;;;;5073830;28;20020;-82
2021/03/11 05:38:16;;;;;;;20.00;10.47;;;;;;;;;;5073198;28;20039;-82
2021/03/11 05:40:41;;;;;;;17.73;10.93;;;;;;;;;;5072123;28;20472;-82
2021/03/11 05:43:07;;;;;;;20.63;11.80;;;;;;;;;;5072943;28;20036;-82
2021/03/11 05:45:33;;;;;;;15.68;9.30;;;;;;;;;;5072129;28;20078;-81
2021/03/11 05:47:58;;;;;;;18.88;11.10;;;;;;;;;;5072099;28;20020;-82
2021/03/11 05:50:24;;;;;;;17.03;11.03;;;;;;;;;;5073076;28;20145;-82
2021/03/11 05:52:50;;;;;;;16.13;9.63;;;;;;;;;;5071947;28;20024;-82
2021/03/11 05:55:15;;;;;;;16.23;10.10;;;;;;;;;;5071857;28;20116;-82
2021/03/11 05:57:41;;;;;;;21.53;10.80;;;;;;;;;;5073187;28;20048;-82
2021/03/11 06:00:07;;;;;;;16.20;7.87;;;;;;;;;;5071571;28;20103;-82
2021/03/11 06:02:33;;;;;;;24.87;11.20;;;;;;;;;;5071472;28;20024;-82
2021/03/11 06:04:58;;;;;;;21.27;11.57;;;;;;;;;;5072895;28;20099;-82
2021/03/11 06:07:23;;;;;;;17.87;10.90;;;;;;;;;;5071328;28;20031;-82
2021/03/11 06:10:05;;;;;;;24.10;12.90;;;;;;;;;;5071474;28;20023;-82
2021/03/11 06:12:31;;;;;;;29.57;13.07;;;;;;;;;;5070966;28;20020;-82
2021/03/11 06:15:14;;;;;;;17.60;9.37;;;;;;;;;;5071561;28;20491;-82
2021/03/11 06:17:40;;;;;;;22.63;11.70;;;;;;;;;;5071182;28;20070;-82
2021/03/11 06:20:06;;;;;;;19.30;11.03;;;;;;;;;;5071321;28;20017;-82
2021/03/11 06:22:31;;;;;;;20.43;11.57;;;;;;;;;;5070951;28;20094;-82
2021/03/11 06:24:57;;;;;;;17.50;12.17;;;;;;;;;;5071280;28;20017;-82
2021/03/11 06:27:22;;;;;;;17.23;10.43;;;;;;;;;;5070838;28;20029;-82
2021/03/11 06:29:47;;;;;;;20.30;8.87;;;;;;;;;;5070754;28;20020;-82
2021/03/11 06:32:12;;;;;;;15.77;9.90;;;;;;;;;;5071142;28;20070;-82
2021/03/11 06:34:47;;;;;;;17.97;11.40;;;;;;;;;;5070517;28;20012;-82
2021/03/11 06:37:14;;;;;;;18.27;10.83;;;;;;;;;;5071024;28;20024;-82
2021/03/11 06:39:40;;;;;;;16.70;10.20;;;;;;;;;;5072140;28;20016;-82
2021/03/11 06:42:06;;;;;;;15.37;10.87;;;;;;;;;;5070971;28;20020;-83
2021/03/11 06:44:39;;;;;;;17.50;9.33;;;;;;;;;;5070753;28;20024;-82
2021/03/11 06:47:06;;;;;;;16.10;9.20;;;;;;;;;;5070787;28;20031;-82
2021/03/11 06:49:31;;;;;;;13.60;8.30;;;;;;;;;;5070776;28;20487;-82
2021/03/11 06:52:07;;;;;;;12.82;8.10;;;;;;;;;;5069806;28;20020;-82
2021/03/11 06:54:51;;;;;;;12.27;7.50;;;;;;;;;;5069572;28;20508;-82
2021/03/11 06:57:25;;;;;;;11.13;7.00;;;;;;;;;;5069161;28;20113;-81
2021/03/11 06:59:51;;;;;;;12.93;6.70;;;;;;;;;;5070360;28;20028;-82
2021/03/11 07:02:17;;;;;;;9.50;5.73;;;;;;;;;;5070419;28;20383;-82
2021/03/11 07:04:42;;;;;;;11.67;6.53;;;;;;;;;;5071605;28;20045;-82
2021/03/11 07:07:18;;;;;;;10.85;5.60;;;;;;;;;;5070660;28;20139;-82
2021/03/11 07:09:43;;;;;;;8.27;4.57;;;;;;;;;;5070007;28;20377;-82
2021/03/11 07:12:08;;;;;;;7.13;4.30;;;;;;;;;;5071674;28;20039;-82
2021/03/11 07:14:34;;;;;;;10.70;4.47;;;;;;;;;;5071597;28;20557;-81
2021/03/11 07:17:15;;;;;;;8.43;3.42;;;;;;;;;;5069846;28;20056;-82
2021/03/11 07:19:40;;;;;;;8.60;3.53;;;;;;;;;;5069487;28;20181;-82
2021/03/11 07:22:15;;;;;;;15.18;3.47;;;;;;;;;;5069050;28;20112;-82
2021/03/11 07:24:40;;;;;;;11.33;3.57;;;;;;;;;;5070383;28;20028;-82
2021/03/11 07:27:07;;;;;;;10.27;4.38;;;;;;;;;;5070615;28;20029;-82
2021/03/11 07:29:32;;;;;;;14.60;4.40;;;;;;;;;;5070927;28;20055;-82
2021/03/11 07:32:01;;;;;;;14.20;4.82;;;;;;;;;;5069798;28;20135;-82
2021/03/11 07:34:27;;;;;;;12.85;3.97;;;;;;;;;;5070238;28;20036;-82
2021/03/11 07:36:54;;;;;;;13.73;4.05;;;;;;;;;;5070057;28;20063;-82
2021/03/11 07:39:19;;;;;;;9.07;3.30;;;;;;;;;;5070437;28;20040;-82
2021/03/11 07:41:45;;;;;;;15.32;4.25;;;;;;;;;;5071100;28;20021;-82
2021/03/11 07:44:10;;;;;;;15.15;3.38;;;;;;;;;;5070444;28;20060;-81
2021/03/11 07:46:36;;;;;;;13.93;3.42;;;;;;;;;;5069955;28;20075;-82
2021/03/11 07:49:01;;;;;;;11.43;3.17;;;;;;;;;;5071829;28;20024;-82
2021/03/11 07:51:26;;;;;;;16.10;3.45;;;;;;;;;;5069649;28;20368;-82
2021/03/11 07:53:52;;;;;;;17.87;3.63;;;;;;;;;;5071179;28;20066;-82
2021/03/11 07:56:17;;;;;;;12.43;3.13;;;;;;;;;;5070347;28;20025;-82
2021/03/11 07:58:44;;;;;;;16.42;2.35;;;;;;;;;;5070842;28;20402;-82
2021/03/11 08:01:10;;;;;;;13.48;2.70;;;;;;;;;;5069746;28;20068;-82
2021/03/11 08:03:36;;;;;;;14.40;2.47;;;;;;;;;;5069181;28;20048;-82
2021/03/11 08:06:21;;;;;;;15.38;2.42;;;;;;;;;;5069948;28;20039;-82
2021/03/11 08:08:47;;;;;;;19.60;2.38;;;;;;;;;;5072341;28;20032;-82
2021/03/11 08:11:29;;;;;;;12.73;2.25;;;;;;;;;;5073938;28;20361;-82
2021/03/11 08:14:14;;;;;;;21.88;3.90;;;;;;;;;;5075081;28;20032;-82
2021/03/11 08:16:39;;;;;;;17.13;3.42;;;;;;;;;;5071781;28;20061;-81
2021/03/11 08:19:05;;;;;;;19.25;3.47;;;;;;;;;;5073772;28;20028;-81
2021/03/11 08:21:30;;;;;;;17.98;2.97;;;;;;;;;;5074840;28;20024;-81
2021/03/11 08:23:55;;;;;;;20.25;3.47;;;;;;;;;;5073642;28;20418;-81
2021/03/11 08:26:53;;;;;;;28.25;3.60;;;;;;;;;;5073709;28;20035;-82
2021/03/11 08:29:18;;;;;;;19.02;3.22;;;;;;;;;;5057515;28;20036;-82
2021/03/11 08:31:44;;;;;;;24.00;4.13;;;;;;;;;;5069803;28;20023;-82
2021/03/11 08:34:29;;;;;;;25.17;4.20;;;;;;;;;;5099106;28;20025;-82
2021/03/11 08:36:54;;;;;;;34.83;6.93;;;;;;;;;;5071876;28;20475;-81
2021/03/11 08:39:29;;;;;;;33.53;4.93;;;;;;;;;;5072175;28;20016;-82
2021/03/11 08:41:54;;;;;;;47.17;7.65;;;;;;;;;;5073047;28;20024;-81
2021/03/11 08:44:40;;;;;;;48.47;7.03;;;;;;;;;;5073578;28;20020;-81
2021/03/11 08:47:09;;;;;;;45.03;6.15;;;;;;;;;;5070933;28;20039;-81
2021/03/11 08:49:38;;;;;;;39.65;6.50;;;;;;;;;;5074392;28;20031;-81
2021/03/11 08:52:03;;;;;;;41.28;7.22;;;;;;;;;;5072376;28;20035;-81
2021/03/11 08:54:29;;;;;;;37.10;6.95;;;;;;;;;;5073138;28;20020;-81
2021/03/11 08:56:54;;;;;;;34.75;6.00;;;;;;;;;;5072425;28;20099;-81
2021/03/11 08:59:19;;;;;;;35.08;6.38;;;;;;;;;;5072715;28;20024;-80
2021/03/11 09:01:48;;;;;;;38.70;7.28;;;;;;;;;;5073059;28;20013;-81
2021/03/11 09:04:19;;;;;;;32.65;5.45;;;;;;;;;;5069313;28;20403;-81
2021/03/11 09:06:54;;;;;;;33.40;5.85;;;;;;;;;;5068437;28;20051;-80
2021/03/11 09:09:38;;;;;;;42.78;6.55;;;;;;;;;;5070252;28;20020;-80
2021/03/11 09:12:07;;;;;;;36.17;6.20;;;;;;;;;;5098821;28;20476;-81
2021/03/11 09:14:32;;;;;;;42.25;5.90;;;;;;;;;;5065693;28;20050;-81
2021/03/11 09:17:04;;;;;;;33.78;5.82;;;;;;;;;;5064849;28;20016;-81
2021/03/11 09:19:40;;;;;;;28.27;3.90;;;;;;;;;;5071436;28;20368;-80
2021/03/11 09:22:21;;;;;;;23.02;4.32;;;;;;;;;;5063813;28;20035;-80
2021/03/11 09:24:57;;;;;;;26.08;3.97;;;;;;;;;;5072100;28;20020;-80
2021/03/11 09:27:30;;;;;;;28.13;4.78;;;;;;;;;;5070590;28;20024;-80
2021/03/11 09:29:55;;;;;;;;;;;;;;;;;;5070410;28;20024;-80
2021/03/11 09:32:20;;;;;;;25.67;4.45;;;;;;;;;;5071284;28;19915;-80
2021/03/11 09:34:52;;;;;;;28.77;4.97;;;;;;;;;;5072184;28;20082;-80
2021/03/11 09:37:17;;;;;;;37.55;6.38;;;;;;;;;;5071197;28;20483;-80
2021/03/11 09:39:58;;;;;;;30.05;6.28;;;;;;;;;;5071894;28;20060;-80
2021/03/11 09:42:23;;;;;;;28.95;5.32;;;;;;;;;;5071457;28;20046;-80
2021/03/11 09:44:51;;;;;;;41.80;5.55;;;;;;;;;;5069700;28;20472;-80
2021/03/11 09:47:27;;;;;;;29.27;5.57;;;;;;;;;;5072260;28;20483;-81
2021/03/11 09:50:04;;;;;;;33.85;5.20;;;;;;;;;;5071763;28;20040;-80
2021/03/11 09:52:29;;;;;;;30.60;5.15;;;;;;;;;;5069609;28;20110;-80
2021/03/11 09:54:58;;;;;;;25.85;4.35;;;;;;;;;;5071528;28;20468;-80
2021/03/11 09:57:23;;;;;;;33.80;4.85;;;;;;;;;;5071962;28;20298;-80
2021/03/11 09:59:48;;;;;;;36.17;5.93;;;;;;;;;;5070517;28;20086;-80
2021/03/11 10:02:14;;;;;;;35.70;5.65;;;;;;;;;;5066720;28;20024;-80
2021/03/11 10:04:40;;;;;;;34.13;5.55;;;;;;;;;;5072064;28;20094;-79
2021/03/11 10:07:12;;;;;;;28.75;6.10;;;;;;;;;;5070197;28;20035;-79
2021/03/11 10:09:38;;;;;;;38.55;5.25;;;;;;;;;;5066343;28;20025;-81
2021/03/11 10:12:03;;;;;;;32.35;5.00;;;;;;;;;;5070204;28;20055;-81
2021/03/11 10:14:29;;;;;;;26.10;6.25;;;;;;;;;;5070161;28;20032;-81
2021/03/11 10:16:55;;;;;;;32.67;6.05;;;;;;;;;;5071306;28;20017;-80
2021/03/11 10:19:21;;;;;;;39.95;6.22;;;;;;;;;;5069920;28;20465;-81
2021/03/11 10:21:51;;;;;;;30.38;5.43;;;;;;;;;;5071869;28;20024;-81
2021/03/11 10:24:35;;;;;;;28.95;5.35;;;;;;;;;;5065541;28;20127;-82
2021/03/11 10:27:00;;;;;;;36.72;5.13;;;;;;;;;;5072521;28;20024;-82
2021/03/11 10:29:32;;;;;;;31.10;4.82;;;;;;;;;;5070474;28;20024;-82
2021/03/11 10:32:05;;;;;;;30.98;6.63;;;;;;;;;;5071183;28;20402;-82
2021/03/11 10:34:30;;;;;;;26.48;5.10;;;;;;;;;;5072025;28;20119;-81
2021/03/11 10:36:59;;;;;;;31.35;4.00;;;;;;;;;;5072212;28;20095;-82
2021/03/11 10:39:25;;;;;;;29.45;3.85;;;;;;;;;;5069455;28;20348;-82
2021/03/11 10:42:01;;;;;;;29.35;4.25;;;;;;;;;;5072194;28;20017;-82
2021/03/11 10:44:28;;;;;;;30.75;5.05;;;;;;;;;;5096562;28;20514;-82
2021/03/11 10:46:53;;;;;;;33.63;4.57;;;;;;;;;;5071424;28;20024;-82
2021/03/11 10:49:33;;;;;;;27.58;4.57;;;;;;;;;;5072920;28;20095;-83
2021/03/11 10:51:59;;;;;;;33.00;5.05;;;;;;;;;;5071093;28;20075;-82
2021/03/11 10:54:30;;;;;;;23.15;3.67;;;;;;;;;;5072906;28;20070;-82
2021/03/11 10:57:14;;;;;;;21.33;4.85;;;;;;;;;;5072811;28;20094;-81
2021/03/11 10:59:49;;;;;;;21.15;4.07;;;;;;;;;;5064957;28;20020;-81
2021/03/11 11:02:15;;;;;;;20.50;2.92;;;;;;;;;;5071644;28;20029;-81
2021/03/11 11:04:43;;;;;;;17.60;2.90;;;;;;;;;;5070708;28;20025;-81
2021/03/11 11:07:08;;;;;;;26.20;5.03;;;;;;;;;;5071913;28;20498;-80
2021/03/11 11:09:34;;;;;;;24.67;5.30;;;;;;;;;;5070905;28;20095;-81
2021/03/11 11:11:59;;;;;;;24.38;4.55;;;;;;;;;;5070924;28;20028;-80
2021/03/11 11:14:25;;;;;;;26.75;4.07;;;;;;;;;;5070445;28;20024;-80
2021/03/11 11:16:50;;;;;;;21.60;3.50;;;;;;;;;;5070933;28;20043;-79
2021/03/11 11:19:15;;;;;;;22.88;4.20;;;;;;;;;;5070440;28;20025;-79
2021/03/11 11:21:40;;;;;;;21.92;3.13;;;;;;;;;;5070447;28;20062;-79
2021/03/11 11:24:05;;;;;;;24.58;4.95;;;;;;;;;;5071975;28;20033;-79
2021/03/11 11:26:31;;;;;;;30.25;4.43;;;;;;;;;;5102869;28;20020;-79
2021/03/11 11:28:56;;;;;;;31.92;5.10;;;;;;;;;;5072449;28;20096;-79
2021/03/11 11:31:21;;;;;;;31.10;4.38;;;;;;;;;;5069837;28;20476;-79
2021/03/11 11:33:46;;;;;;;24.00;3.78;;;;;;;;;;5071552;28;20027;-79
2021/03/11 11:36:11;;;;;;;20.73;3.92;;;;;;;;;;5070166;28;20120;-79
2021/03/11 11:38:36;;;;;;;26.92;4.85;;;;;;;;;;5068354;28;20020;-79
2021/03/11 11:41:02;;;;;;;24.23;4.22;;;;;;;;;;5070903;28;20020;-79
2021/03/11 11:43:27;;;;;;;27.90;5.70;;;;;;;;;;5073823;28;20375;-79
2021/03/11 11:45:52;;;;;;;26.08;3.55;;;;;;;;;;5074363;28;20057;-79
2021/03/11 11:48:17;;;;;;;27.95;3.75;;;;;;;;;;5074054;28;20099;-79
2021/03/11 11:50:43;;;;;;;24.70;4.00;;;;;;;;;;5073714;28;20024;-79
2021/03/11 11:53:08;;;;;;;24.17;3.92;;;;;;;;;;5073710;28;20032;-79
2021/03/11 11:55:33;;;;;;;23.20;3.28;;;;;;;;;;5074627;28;20021;-79
2021/03/11 11:57:58;;;;;;;26.40;3.65;;;;;;;;;;5074173;28;20017;-79
2021/03/11 12:00:24;;;;;;;22.20;4.35;;;;;;;;;;5073512;28;20027;-79
2021/03/11 12:02:49;;;;;;;14.13;2.47;;;;;;;;;;5073931;28;20107;-79
2021/03/11 12:05:14;;;;;;;26.70;3.92;;;;;;;;;;5075361;28;20074;-79
2021/03/11 12:07:39;;;;;;;21.33;4.03;;;;;;;;;;5074489;28;20032;-79
2021/03/11 12:10:06;;;;;;;21.92;3.95;;;;;;;;;;5074933;28;20452;-79
2021/03/11 12:12:31;;;;;;;20.98;2.67;;;;;;;;;;5072321;28;20514;-80
2021/03/11 12:14:56;;;;;;;17.05;2.65;;;;;;;;;;5073888;28;20024;-79
2021/03/11 12:17:22;;;;;;;21.60;2.90;;;;;;;;;;5073411;28;20055;-79
2021/03/11 12:19:47;;;;;;;23.67;3.88;;;;;;;;;;5071353;28;20372;-79
2021/03/11 12:22:12;;;;;;;27.20;2.92;;;;;;;;;;5073751;28;20041;-80
2021/03/11 12:24:37;;;;;;;22.88;3.15;;;;;;;;;;5073383;28;20025;-80
2021/03/11 12:27:03;;;;;;;19.63;3.05;;;;;;;;;;5073576;28;20486;-80
2021/03/11 12:29:28;;;;;;;29.08;4.32;;;;;;;;;;5072870;28;20111;-79
2021/03/11 12:31:53;;;;;;;18.33;3.50;;;;;;;;;;5072223;28;20440;-80
2021/03/11 12:34:18;;;;;;;32.25;3.35;;;;;;;;;;5068749;28;20064;-80
2021/03/11 12:36:43;;;;;;;21.60;4.70;;;;;;;;;;5064186;28;20024;-80
2021/03/11 12:39:09;;;;;;;25.25;3.22;;;;;;;;;;5063646;28;20048;-80
2021/03/11 12:41:34;;;;;;;27.42;4.57;;;;;;;;;;5068420;28;20486;-79
2021/03/11 12:43:59;;;;;;;16.83;2.47;;;;;;;;;;5073136;28;20017;-80
2021/03/11 12:46:25;;;;;;;20.83;3.38;;;;;;;;;;5072534;28;20040;-80
2021/03/11 12:48:50;;;;;;;21.35;3.30;;;;;;;;;;5071777;28;20065;-80
2021/03/11 12:51:17;;;;;;;18.35;3.50;;;;;;;;;;5071388;28;20033;-80
2021/03/11 12:53:42;;;;;;;21.58;4.10;;;;;;;;;;5070832;28;20476;-79
2021/03/11 12:56:08;;;;;;;24.70;3.58;;;;;;;;;;5072272;28;20044;-80
2021/03/11 12:58:33;;;;;;;24.05;3.70;;;;;;;;;;5072444;28;20380;-80
2021/03/11 13:00:58;;;;;;;20.58;3.25;;;;;;;;;;5071580;28;20111;-80
2021/03/11 13:03:23;;;;;;;24.83;4.90;;;;;;;;;;5071630;28;20036;-80
2021/03/11 13:05:48;;;;;;;32.35;3.90;;;;;;;;;;5073293;28;20035;-80
2021/03/11 13:08:14;;;;;;;22.70;3.08;;;;;;;;;;5073294;28;20387;-80
2021/03/11 13:10:39;;;;;;;19.73;2.63;;;;;;;;;;5071561;28;20043;-80
2021/03/11 13:13:05;;;;;;;23.88;3.95;;;;;;;;;;5070806;28;20032;-80
2021/03/11 13:15:31;;;;;;;24.35;3.55;;;;;;;;;;5073069;28;20074;-80
2021/03/11 13:17:56;;;;;;;22.48;2.97;;;;;;;;;;5071188;28;20025;-80
2021/03/11 13:20:21;;;;;;;22.02;4.15;;;;;;;;;;5071624;28;20024;-79
2021/03/11 13:22:47;;;;;;;23.02;3.22;;;;;;;;;;5072375;28;20760;-80
2021/03/11 13:25:13;;;;;;;26.35;2.92;;;;;;;;;;5067648;28;20025;-80
2021/03/11 13:27:38;;;;;;;17.75;3.60;;;;;;;;;;5069445;28;20012;-80
2021/03/11 13:30:03;;;;;;;21.13;3.67;;;;;;;;;;5063786;28;20120;-80
2021/03/11 13:32:29;;;;;;;21.83;3.90;;;;;;;;;;5071236;28;20111;-80
2021/03/11 13:34:54;;;;;;;21.17;3.85;;;;;;;;;;5066576;28;20024;-79
2021/03/11 13:37:20;;;;;;;20.20;3.70;;;;;;;;;;5059272;28;20028;-80
2021/03/11 13:39:45;;;;;;;24.77;2.25;;;;;;;;;;5062272;28;20040;-80
2021/03/11 13:42:10;;;;;;;20.90;2.65;;;;;;;;;;5062553;28;20021;-80
2021/03/11 13:44:35;;;;;;;17.33;2.75;;;;;;;;;;5068817;28;20476;-80
2021/03/11 13:47:01;;;;;;;19.52;2.20;;;;;;;;;;5069921;28;20111;-80
2021/03/11 13:49:26;;;;;;;25.42;2.45;;;;;;;;;;5070168;28;20100;-80
2021/03/11 13:51:51;;;;;;;20.63;3.00;;;;;;;;;;5071129;28;20070;-80
2021/03/11 13:54:16;;;;;;;21.33;2.85;;;;;;;;;;5068676;28;20024;-80
2021/03/11 13:56:42;;;;;;;16.48;1.60;;;;;;;;;;5072019;28;20349;-80
2021/03/11 13:59:07;;;;;;;14.48;2.17;;;;;;;;;;5070338;28;20153;-80
2021/03/11 14:01:32;;;;;;;15.90;2.80;;;;;;;;;;5070563;28;20113;-80
2021/03/11 14:03:57;;;;;;;15.70;2.13;;;;;;;;;;5062813;28;20024;-80
2021/03/11 14:06:24;;;;;;;11.70;1.95;;;;;;;;;;5065797;28;20409;-80
2021/03/11 14:08:50;;;;;;;17.13;2.38;;;;;;;;;;5070957;28;20099;-80
2021/03/11 14:11:15;;;;;;;15.05;1.88;;;;;;;;;;5069656;28;20120;-80
2021/03/11 14:13:40;;;;;;;14.00;1.77;;;;;;;;;;5070147;28;20451;-80
2021/03/11 14:16:06;;;;;;;14.13;1.83;;;;;;;;;;5070941;28;20024;-80
2021/03/11 14:18:31;;;;;;;14.50;1.65;;;;;;;;;;5069276;28;20017;-80
2021/03/11 14:20:56;;;;;;;11.77;1.23;;;;;;;;;;5070163;28;20330;-80
2021/03/11 14:23:22;;;;;;;10.85;1.92;;;;;;;;;;5070372;28;20024;-80
2021/03/11 14:25:47;;;;;;;11.68;2.28;;;;;;;;;;5070511;28;20472;-80